Time;durP1;ratioP1;P1;durP2;ratioP2;P2;SDS_P1;SDS_P2;PMS_P1;PMS_P2;Temp;Humidity;BMP_temperature;BMP_pressure;BME280_temperature;BME280_humidity;BME280_pressure;Samples;Min_cycle;Max_cycle;Signal;HPM_P1;HPM_P2
2023/01/09 08:54:52;;;;;;;4.28;3.65;;;;;;;;;;5856993;23;20150;-91
2023/01/09 09:25:44;;;;;;;5.53;4.88;;;;;;;;;;4953036;23;20059;-92
2023/01/09 09:28:09;;;;;;;5.43;4.93;;;;;;;;;;4937390;29;20028;-89
2023/01/09 09:30:37;;;;;;;6.00;5.40;;;;;;;;;;4937516;29;20039;-88
2023/01/09 09:33:04;;;;;;;6.20;5.60;;;;;;;;;;4937352;29;20032;-90
2023/01/09 09:35:31;;;;;;;6.40;5.28;;;;;;;;;;4946469;29;20049;-90
2023/01/09 09:37:59;;;;;;;5.85;5.18;;;;;;;;;;4938052;29;20431;-92
2023/01/09 09:41:00;;;;;;;6.25;5.65;;;;;;;;;;4935551;29;20367;-90
2023/01/09 09:47:18;;;;;;;6.00;5.50;;;;;;;;;;4937079;29;20035;-90
2023/01/09 09:49:57;;;;;;;6.57;5.50;;;;;;;;;;4903191;29;20098;-91
2023/01/09 09:52:44;;;;;;;10.77;6.40;;;;;;;;;;4937141;29;20032;-92
2023/01/09 09:55:47;;;;;;;6.32;5.50;;;;;;;;;;4936423;29;20066;-90
2023/01/09 09:58:36;;;;;;;8.27;5.95;;;;;;;;;;4845102;29;20156;-94
2023/01/09 10:01:06;;;;;;;7.85;4.97;;;;;;;;;;4845154;29;20041;-92
2023/01/09 10:03:46;;;;;;;5.70;5.10;;;;;;;;;;4845289;29;20045;-95
2023/01/09 10:06:37;;;;;;;;;;;;;;;;;;;;;
2023/01/09 10:09:26;;;;;;;5.80;5.20;;;;;;;;;;4867051;29;20120;-94
2023/01/09 10:11:55;;;;;;;6.10;5.30;;;;;;;;;;4862779;29;20041;-96
2023/01/09 10:14:25;;;;;;;6.20;5.60;;;;;;;;;;4861879;29;20029;-94
2023/01/09 10:17:32;;;;;;;5.05;4.57;;;;;;;;;;4863771;29;20037;-90
2023/01/09 10:20:17;;;;;;;5.55;4.88;;;;;;;;;;4793324;29;20042;-89
2023/01/09 10:23:23;;;;;;;5.20;4.50;;;;;;;;;;4859229;29;20045;-89
2023/01/09 10:26:23;;;;;;;7.22;5.97;;;;;;;;;;4862716;29;20080;-89
2023/01/09 10:29:05;;;;;;;4.85;4.45;;;;;;;;;;4831555;29;20557;-87
2023/01/09 10:32:02;;;;;;;5.43;4.78;;;;;;;;;;4864878;29;20048;-88
2023/01/09 10:34:47;;;;;;;5.75;4.43;;;;;;;;;;4935438;29;20391;-91
2023/01/09 10:37:23;;;;;;;3.60;3.30;;;;;;;;;;4935245;29;20035;-89
2023/01/09 10:40:00;;;;;;;3.58;3.28;;;;;;;;;;4936396;29;20035;-87
2023/01/09 10:42:32;;;;;;;4.30;3.63;;;;;;;;;;4935937;29;20024;-88
2023/01/09 10:45:06;;;;;;;3.33;3.03;;;;;;;;;;4936251;29;20031;-87
2023/01/09 10:47:36;;;;;;;3.25;2.95;;;;;;;;;;4934800;29;20391;-89
2023/01/09 10:50:16;;;;;;;3.92;3.10;;;;;;;;;;4936168;29;20036;-88
2023/01/09 10:52:41;;;;;;;3.30;3.00;;;;;;;;;;4938206;29;20461;-87
2023/01/09 10:55:39;;;;;;;3.40;3.10;;;;;;;;;;4939437;29;20132;-87
2023/01/09 10:58:16;;;;;;;3.00;2.70;;;;;;;;;;4939448;29;20030;-94
2023/01/09 11:00:42;;;;;;;4.30;3.90;;;;;;;;;;4939889;29;20031;-88
2023/01/09 11:03:16;;;;;;;3.50;3.20;;;;;;;;;;4939369;29;20024;-88
2023/01/09 11:05:51;;;;;;;3.50;3.20;;;;;;;;;;4939271;29;20028;-89
2023/01/09 11:08:41;;;;;;;2.70;2.50;;;;;;;;;;4938394;29;20475;-88
2023/01/09 11:11:08;;;;;;;2.47;2.25;;;;;;;;;;4938572;29;20040;-88
2023/01/09 11:13:37;;;;;;;2.50;2.30;;;;;;;;;;4938852;29;20032;-87
2023/01/09 11:16:14;;;;;;;2.92;2.72;;;;;;;;;;4937968;29;20031;-88
2023/01/09 11:18:47;;;;;;;6.72;4.10;;;;;;;;;;4938254;29;20123;-89
2023/01/09 11:21:24;;;;;;;4.85;3.70;;;;;;;;;;4939450;29;20038;-88
2023/01/09 11:23:50;;;;;;;31.48;14.90;;;;;;;;;;4939610;29;20035;-89
2023/01/09 11:26:27;;;;;;;17.15;8.32;;;;;;;;;;4939847;29;20055;-89
2023/01/09 11:29:10;;;;;;;18.10;8.35;;;;;;;;;;4939663;29;20027;-88
2023/01/09 11:31:37;;;;;;;19.88;9.07;;;;;;;;;;4937642;29;20031;-88
2023/01/09 11:34:03;;;;;;;19.02;8.90;;;;;;;;;;4939708;29;20020;-90
2023/01/09 11:36:29;;;;;;;10.50;7.72;;;;;;;;;;4939610;29;20103;-92
2023/01/09 11:38:57;;;;;;;7.05;4.63;;;;;;;;;;4937953;29;20027;-89
2023/01/09 11:41:33;;;;;;;6.00;5.25;;;;;;;;;;4938038;29;20114;-89
2023/01/09 11:43:59;;;;;;;5.65;5.15;;;;;;;;;;4937977;29;20051;-91
2023/01/09 11:46:34;;;;;;;5.90;4.13;;;;;;;;;;4937953;29;20047;-90
2023/01/09 11:49:03;;;;;;;2.25;2.05;;;;;;;;;;4937768;29;20035;-93
2023/01/09 11:51:31;;;;;;;3.50;2.85;;;;;;;;;;4937756;29;20043;-89
2023/01/09 11:54:15;;;;;;;4.38;3.80;;;;;;;;;;4938395;29;20027;-89
2023/01/09 11:56:41;;;;;;;4.32;3.63;;;;;;;;;;4933209;29;20031;-88
2023/01/09 11:59:12;;;;;;;5.15;2.83;;;;;;;;;;4924054;29;20023;-89
2023/01/09 12:01:41;;;;;;;3.60;2.55;;;;;;;;;;4935812;29;20031;-89
2023/01/09 12:04:06;;;;;;;2.60;2.40;;;;;;;;;;4933246;29;20024;-88
2023/01/09 12:06:51;;;;;;;3.47;3.17;;;;;;;;;;4936824;29;20039;-88
2023/01/09 12:09:34;;;;;;;10.65;8.80;;;;;;;;;;4936720;29;20115;-91
2023/01/09 12:12:55;;;;;;;4.80;3.47;;;;;;;;;;4938037;29;20489;-88
2023/01/09 12:15:32;;;;;;;3.35;2.88;;;;;;;;;;4872161;29;20505;-90
2023/01/09 12:18:28;;;;;;;2.95;1.50;;;;;;;;;;4937897;29;20372;-90
2023/01/09 12:20:56;;;;;;;35.00;30.10;;;;;;;;;;4937433;29;20036;-89
2023/01/09 12:23:37;;;;;;;14.80;10.27;;;;;;;;;;4941521;29;20130;-90
2023/01/09 12:26:14;;;;;;;36.80;18.33;;;;;;;;;;4940874;29;20059;-90
2023/01/09 12:28:54;;;;;;;2.53;2.30;;;;;;;;;;4938391;29;20028;-88
2023/01/09 12:31:25;;;;;;;;;;;;;;;;;;4939237;29;20093;-90
2023/01/09 12:34:22;;;;;;;2.10;1.75;;;;;;;;;;4937994;29;19914;-91
2023/01/09 12:37:21;;;;;;;2.38;2.17;;;;;;;;;;4938483;29;20438;-93
2023/01/09 12:40:16;;;;;;;1.02;1.00;;;;;;;;;;4937031;29;20032;-92
2023/01/09 12:43:03;;;;;;;1.00;1.00;;;;;;;;;;4936282;29;20503;-91
2023/01/09 17:15:39;;;;;;;2.28;2.10;;;;;;;;;;4889565;29;20281;-88
2023/01/09 17:18:05;;;;;;;1.60;1.50;;;;;;;;;;4894479;29;20499;-88
2023/01/09 17:20:32;;;;;;;2.45;1.75;;;;;;;;;;4894648;29;20033;-87
2023/01/09 17:22:58;;;;;;;1.92;1.70;;;;;;;;;;4907534;29;20020;-89
2023/01/09 17:28:32;;;;;;;1.20;1.20;;;;;;;;;;4899030;29;20445;-89
2023/01/09 17:31:04;;;;;;;;;;;;;;;;;;4913959;29;20033;-90
2023/01/09 17:33:30;;;;;;;53.38;25.30;;;;;;;;;;4913566;29;19923;-86
2023/01/09 17:35:56;;;;;;;38.35;19.73;;;;;;;;;;4898794;29;20021;-91
2023/01/09 17:38:22;;;;;;;8.48;5.40;;;;;;;;;;4897835;29;20102;-86
2023/01/09 17:40:49;;;;;;;12.02;6.40;;;;;;;;;;4898418;29;20033;-87
2023/01/09 17:43:16;;;;;;;11.95;5.68;;;;;;;;;;4906865;29;20156;-87
2023/01/09 17:45:41;;;;;;;10.35;4.75;;;;;;;;;;4902274;29;20392;-86
2023/01/09 17:48:25;;;;;;;6.97;3.45;;;;;;;;;;4896939;29;20075;-87
2023/01/09 17:50:50;;;;;;;4.50;3.28;;;;;;;;;;4898027;29;20130;-88
2023/01/09 17:53:18;;;;;;;2.75;2.08;;;;;;;;;;4897371;29;20477;-87
2023/01/09 17:55:44;;;;;;;1.50;1.33;;;;;;;;;;4897038;29;20029;-88
2023/01/09 17:58:23;;;;;;;2.25;2.05;;;;;;;;;;4898098;29;20376;-87
2023/01/09 18:00:49;;;;;;;4.28;2.67;;;;;;;;;;4912867;29;20108;-88
2023/01/09 18:03:14;;;;;;;2.78;2.28;;;;;;;;;;4904598;29;20028;-90
2023/01/09 18:05:39;;;;;;;3.20;2.75;;;;;;;;;;4910341;29;20484;-87
2023/01/09 18:08:08;;;;;;;2.38;1.80;;;;;;;;;;4916495;29;20032;-87
2023/01/09 18:10:33;;;;;;;1.40;1.30;;;;;;;;;;4900849;29;20044;-86
2023/01/09 18:12:59;;;;;;;2.20;1.10;;;;;;;;;;4901092;29;20031;-87
2023/01/09 18:15:24;;;;;;;1.98;1.80;;;;;;;;;;4916306;29;20522;-88
2023/01/09 18:17:51;;;;;;;5.57;1.73;;;;;;;;;;4901834;29;20031;-88
2023/01/09 18:20:17;;;;;;;1.95;1.50;;;;;;;;;;4916351;29;20476;-88
2023/01/09 18:22:42;;;;;;;1.55;1.38;;;;;;;;;;4901936;29;20502;-88
2023/01/09 18:25:08;;;;;;;1.92;1.63;;;;;;;;;;4901829;29;20048;-88
2023/01/09 18:27:37;;;;;;;2.05;1.50;;;;;;;;;;4901656;29;20036;-88
2023/01/09 18:30:05;;;;;;;2.03;1.57;;;;;;;;;;4901727;29;20028;-89
2023/01/09 18:32:31;;;;;;;1.77;1.40;;;;;;;;;;4901510;29;20081;-88
2023/01/09 18:34:56;;;;;;;1.50;1.30;;;;;;;;;;4900656;29;20119;-90
2023/01/09 18:37:21;;;;;;;1.63;1.23;;;;;;;;;;4901491;29;20472;-86
2023/01/09 18:39:47;;;;;;;3.42;1.80;;;;;;;;;;4900109;29;20036;-87
2023/01/09 18:42:12;;;;;;;1.60;1.50;;;;;;;;;;4901410;29;20523;-88
2023/01/09 18:44:38;;;;;;;2.75;1.83;;;;;;;;;;4901373;29;20024;-85
2023/01/09 18:47:03;;;;;;;1.65;1.42;;;;;;;;;;4901514;29;20587;-88
2023/01/09 18:49:29;;;;;;;1.40;1.30;;;;;;;;;;4901922;29;20060;-88
2023/01/09 18:51:55;;;;;;;50.63;25.30;;;;;;;;;;4901782;29;20399;-87
2023/01/09 18:54:21;;;;;;;80.50;40.88;;;;;;;;;;4900022;29;20510;-88
2023/01/09 18:56:47;;;;;;;60.58;29.48;;;;;;;;;;4900376;29;20029;-89
2023/01/09 18:59:12;;;;;;;77.05;34.17;;;;;;;;;;4901637;29;20440;-86
2023/01/09 19:01:37;;;;;;;45.35;22.35;;;;;;;;;;4905817;29;20035;-91
2023/01/09 19:04:03;;;;;;;17.63;9.60;;;;;;;;;;4924577;29;20029;-92
2023/01/09 19:06:29;;;;;;;8.93;8.10;;;;;;;;;;4901361;29;20111;-88
2023/01/09 19:08:57;;;;;;;6.20;4.97;;;;;;;;;;4901492;29;20174;-90
2023/01/09 19:11:23;;;;;;;4.70;4.00;;;;;;;;;;4900945;29;20156;-91
2023/01/09 19:13:49;;;;;;;4.63;4.15;;;;;;;;;;4915431;29;20056;-90
2023/01/09 19:16:15;;;;;;;4.40;3.33;;;;;;;;;;4915510;29;20052;-89
2023/01/09 19:18:41;;;;;;;7.07;6.38;;;;;;;;;;4900975;29;20060;-88
2023/01/09 19:21:15;;;;;;;2.90;2.35;;;;;;;;;;4915653;29;20084;-92
2023/01/09 19:23:42;;;;;;;3.10;2.70;;;;;;;;;;4900821;29;20064;-89
2023/01/09 19:26:19;;;;;;;3.22;2.53;;;;;;;;;;4900817;29;20016;-89
2023/01/09 19:28:45;;;;;;;1.70;1.60;;;;;;;;;;4901004;29;20032;-86
2023/01/09 19:31:12;;;;;;;1.45;1.35;;;;;;;;;;4900589;29;20116;-87
2023/01/09 19:33:37;;;;;;;1.45;1.35;;;;;;;;;;4900789;29;20032;-92
2023/01/09 19:36:03;;;;;;;2.65;2.33;;;;;;;;;;4915264;29;20515;-85
2023/01/09 19:38:28;;;;;;;5.03;4.50;;;;;;;;;;4900685;29;20032;-89
2023/01/09 19:40:54;;;;;;;17.95;8.75;;;;;;;;;;4900629;29;20084;-89
2023/01/09 19:43:25;;;;;;;10.93;5.80;;;;;;;;;;4915870;29;20111;-88
2023/01/09 19:45:54;;;;;;;59.88;22.73;;;;;;;;;;4914841;29;20025;-89
2023/01/09 19:48:21;;;;;;;69.80;30.02;;;;;;;;;;4900573;29;20111;-88
2023/01/09 19:50:47;;;;;;;40.58;18.58;;;;;;;;;;4898961;29;20124;-86
2023/01/09 19:53:13;;;;;;;16.35;7.95;;;;;;;;;;4899997;29;20078;-87
2023/01/09 19:55:39;;;;;;;8.82;5.22;;;;;;;;;;4900250;29;20033;-86
2023/01/09 19:58:04;;;;;;;6.57;4.10;;;;;;;;;;4902804;29;20028;-89
2023/01/09 20:00:30;;;;;;;5.22;2.72;;;;;;;;;;4910007;29;20491;-90
2023/01/09 20:02:56;;;;;;;14.40;8.65;;;;;;;;;;4899063;29;20444;-89
2023/01/09 20:05:23;;;;;;;4.03;3.10;;;;;;;;;;4914586;29;20024;-90
2023/01/09 20:07:55;;;;;;;2.72;2.53;;;;;;;;;;4926948;29;20115;-91
2023/01/09 20:10:21;;;;;;;2.53;1.63;;;;;;;;;;4912358;29;20119;-91
2023/01/09 20:12:46;;;;;;;6.03;3.03;;;;;;;;;;4914578;29;20222;-90
2023/01/09 20:15:13;;;;;;;5.55;3.20;;;;;;;;;;4899962;29;20555;-91
2023/01/09 20:17:40;;;;;;;7.97;4.43;;;;;;;;;;4915110;29;20045;-91
2023/01/09 20:20:06;;;;;;;5.72;3.45;;;;;;;;;;4914536;29;20135;-89
2023/01/09 20:22:31;;;;;;;6.90;4.95;;;;;;;;;;4914169;29;20576;-88
2023/01/09 20:24:57;;;;;;;6.47;4.47;;;;;;;;;;4897881;29;20119;-89
2023/01/09 20:27:22;;;;;;;6.05;3.95;;;;;;;;;;4899571;29;20025;-93
2023/01/09 20:29:48;;;;;;;10.63;8.40;;;;;;;;;;4904385;29;20035;-89
2023/01/09 20:32:13;;;;;;;2.67;2.42;;;;;;;;;;4898944;29;20029;-94
2023/01/09 20:34:41;;;;;;;6.65;5.82;;;;;;;;;;4914208;29;20032;-91
2023/01/09 20:37:07;;;;;;;3.58;3.20;;;;;;;;;;4914636;29;20115;-91
2023/01/09 20:39:32;;;;;;;2.28;1.75;;;;;;;;;;4900085;29;20119;-91
2023/01/09 20:41:58;;;;;;;2.35;2.15;;;;;;;;;;4916661;29;20036;-94
2023/01/09 20:44:23;;;;;;;3.45;2.85;;;;;;;;;;4910561;29;20036;-92
2023/01/09 20:46:52;;;;;;;4.30;3.58;;;;;;;;;;4904226;29;20079;-92
2023/01/09 20:49:18;;;;;;;2.80;1.90;;;;;;;;;;4898901;29;20029;-92
2023/01/09 20:51:46;;;;;;;1.95;1.73;;;;;;;;;;4914524;29;20040;-92
2023/01/09 20:54:13;;;;;;;2.38;1.52;;;;;;;;;;4914704;29;20041;-92
2023/01/09 20:56:39;;;;;;;1.40;1.30;;;;;;;;;;4914549;29;20479;-91
2023/01/09 20:59:05;;;;;;;1.50;1.40;;;;;;;;;;4927898;29;20027;-91
2023/01/09 21:01:30;;;;;;;2.88;1.92;;;;;;;;;;4914359;29;20027;-89
2023/01/09 21:03:56;;;;;;;3.75;3.20;;;;;;;;;;4900728;29;20104;-96
2023/01/09 21:06:23;;;;;;;3.67;3.38;;;;;;;;;;4917699;29;20024;-93
2023/01/09 21:08:50;;;;;;;7.45;5.22;;;;;;;;;;4905109;29;20053;-94
2023/01/09 21:11:17;;;;;;;5.90;3.88;;;;;;;;;;4906669;29;20404;-96
2023/01/09 21:13:44;;;;;;;3.45;2.92;;;;;;;;;;4890960;29;20052;-93
2023/01/09 21:16:18;;;;;;;6.85;4.47;;;;;;;;;;4914081;29;20044;-94
2023/01/09 21:18:44;;;;;;;3.47;3.17;;;;;;;;;;4924225;29;20054;-94
2023/01/09 21:21:12;;;;;;;6.53;5.38;;;;;;;;;;4901536;29;20115;-94
2023/01/09 21:23:40;;;;;;;5.55;4.10;;;;;;;;;;4898251;29;20073;-92
2023/01/09 21:26:10;;;;;;;3.65;3.35;;;;;;;;;;4898542;29;20029;-93
2023/01/09 21:28:54;;;;;;;;;;;;;;;;;;4898369;29;20032;-92
2023/01/09 21:31:23;;;;;;;10.80;6.50;;;;;;;;;;4913794;29;19915;-94
2023/01/09 21:33:50;;;;;;;7.95;5.35;;;;;;;;;;4898034;29;20036;-91
2023/01/09 21:36:16;;;;;;;5.45;4.45;;;;;;;;;;4897694;29;20108;-93
2023/01/09 21:38:41;;;;;;;6.55;4.78;;;;;;;;;;4900333;29;20128;-91
2023/01/09 21:46:50;;;;;;;8.88;5.00;;;;;;;;;;4912742;29;20027;-90
2023/01/09 21:49:16;;;;;;;10.20;5.90;;;;;;;;;;4911555;29;20028;-89
2023/01/09 21:51:42;;;;;;;8.10;4.88;;;;;;;;;;4887582;29;20048;-89
2023/01/09 21:54:08;;;;;;;6.07;3.60;;;;;;;;;;4909253;29;20463;-89
2023/01/09 21:56:34;;;;;;;4.10;3.25;;;;;;;;;;4896953;29;20037;-88
2023/01/09 21:59:00;;;;;;;5.25;3.47;;;;;;;;;;4897983;29;20036;-89
2023/01/09 22:01:25;;;;;;;14.48;6.22;;;;;;;;;;4897215;29;20032;-89
2023/01/09 22:03:55;;;;;;;7.75;4.03;;;;;;;;;;4897170;29;20504;-90
2023/01/09 22:06:23;;;;;;;5.18;3.30;;;;;;;;;;4906705;29;20085;-93
2023/01/09 22:08:49;;;;;;;4.60;3.30;;;;;;;;;;4900253;29;20045;-88
2023/01/09 22:11:14;;;;;;;13.45;6.25;;;;;;;;;;4905788;29;20037;-88
